sensor_id;sensor_type;location;lat;lon;timestamp;pressure;altitude;pressure_sealevel;temperature;humidity
61786;BME280;47692;53.714;11.372;2023-04-28T00:00:16;101373.59;;;1.96;87.04
61786;BME280;47692;53.714;11.372;2023-04-28T00:02:41;101370.72;;;1.83;87.34
61786;BME280;47692;53.714;11.372;2023-04-28T00:05:07;101366.06;;;1.67;87.52
61786;BME280;47692;53.714;11.372;2023-04-28T00:07:33;101359.91;;;1.61;88.45
61786;BME280;47692;53.714;11.372;2023-04-28T00:09:58;101365.47;;;1.78;88.94
61786;BME280;47692;53.714;11.372;2023-04-28T00:12:23;101366.56;;;1.88;89.79
61786;BME280;47692;53.714;11.372;2023-04-28T00:14:49;101362.09;;;1.81;89.88
61786;BME280;47692;53.714;11.372;2023-04-28T00:17:14;101363.00;;;1.83;90.08
61786;BME280;47692;53.714;11.372;2023-04-28T00:19:40;101355.19;;;1.80;89.43
61786;BME280;47692;53.714;11.372;2023-04-28T00:22:05;101356.81;;;1.76;88.81
61786;BME280;47692;53.714;11.372;2023-04-28T00:24:30;101358.38;;;1.70;88.16
61786;BME280;47692;53.714;11.372;2023-04-28T00:26:57;101348.91;;;1.69;87.84
61786;BME280;47692;53.714;11.372;2023-04-28T00:29:23;101348.84;;;1.66;87.59
61786;BME280;47692;53.714;11.372;2023-04-28T00:31:48;101335.91;;;1.63;87.92
61786;BME280;47692;53.714;11.372;2023-04-28T00:34:14;101350.47;;;1.60;87.52
61786;BME280;47692;53.714;11.372;2023-04-28T00:36:39;101336.66;;;1.58;87.95
61786;BME280;47692;53.714;11.372;2023-04-28T00:39:05;101334.88;;;1.54;87.63
61786;BME280;47692;53.714;11.372;2023-04-28T00:41:30;101334.88;;;1.54;87.78
61786;BME280;47692;53.714;11.372;2023-04-28T00:43:58;101333.19;;;1.56;87.78
61786;BME280;47692;53.714;11.372;2023-04-28T00:46:26;101331.44;;;1.55;87.37
61786;BME280;47692;53.714;11.372;2023-04-28T00:48:53;101326.13;;;1.49;87.13
61786;BME280;47692;53.714;11.372;2023-04-28T00:51:19;101322.69;;;1.47;87.53
61786;BME280;47692;53.714;11.372;2023-04-28T00:53:45;101325.28;;;1.49;87.73
61786;BME280;47692;53.714;11.372;2023-04-28T00:56:11;101316.75;;;1.51;88.25
61786;BME280;47692;53.714;11.372;2023-04-28T00:58:37;101319.34;;;1.51;88.61
61786;BME280;47692;53.714;11.372;2023-04-28T01:01:07;101325.25;;;1.47;88.42
61786;BME280;47692;53.714;11.372;2023-04-28T01:03:33;101319.97;;;1.41;88.04
61786;BME280;47692;53.714;11.372;2023-04-28T01:06:00;101309.56;;;1.38;87.82
61786;BME280;47692;53.714;11.372;2023-04-28T01:08:32;101315.53;;;1.37;87.95
61786;BME280;47692;53.714;11.372;2023-04-28T01:10:57;101309.63;;;1.39;88.37
61786;BME280;47692;53.714;11.372;2023-04-28T01:13:23;101313.97;;;1.42;89.22
61786;BME280;47692;53.714;11.372;2023-04-28T01:15:49;101312.38;;;1.47;89.58
61786;BME280;47692;53.714;11.372;2023-04-28T01:18:15;101309.97;;;1.53;89.51
61786;BME280;47692;53.714;11.372;2023-04-28T01:20:41;101316.09;;;1.58;90.15
61786;BME280;47692;53.714;11.372;2023-04-28T01:23:13;101313.50;;;1.58;90.22
61786;BME280;47692;53.714;11.372;2023-04-28T01:25:39;101309.19;;;1.57;90.31
61786;BME280;47692;53.714;11.372;2023-04-28T01:28:05;101314.19;;;1.51;90.41
61786;BME280;47692;53.714;11.372;2023-04-28T01:30:31;101299.34;;;1.39;90.52
61786;BME280;47692;53.714;11.372;2023-04-28T01:32:56;101301.69;;;1.32;90.56
61786;BME280;47692;53.714;11.372;2023-04-28T01:35:22;101309.09;;;1.19;90.55
61786;BME280;47692;53.714;11.372;2023-04-28T01:37:48;101299.72;;;1.20;91.01
61786;BME280;47692;53.714;11.372;2023-04-28T01:40:13;101304.03;;;1.21;90.34
61786;BME280;47692;53.714;11.372;2023-04-28T01:42:38;101303.06;;;1.17;90.75
61786;BME280;47692;53.714;11.372;2023-04-28T01:45:04;101307.44;;;1.20;90.25
61786;BME280;47692;53.714;11.372;2023-04-28T01:47:30;101303.31;;;1.28;90.24
61786;BME280;47692;53.714;11.372;2023-04-28T01:49:55;101304.25;;;1.30;90.49
61786;BME280;47692;53.714;11.372;2023-04-28T01:52:21;101296.50;;;1.28;90.71
61786;BME280;47692;53.714;11.372;2023-04-28T01:54:48;101289.69;;;1.31;90.57
61786;BME280;47692;53.714;11.372;2023-04-28T01:57:14;101291.41;;;1.32;90.30
61786;BME280;47692;53.714;11.372;2023-04-28T01:59:39;101293.09;;;1.29;89.91
61786;BME280;47692;53.714;11.372;2023-04-28T02:02:05;101293.97;;;1.32;89.81
61786;BME280;47692;53.714;11.372;2023-04-28T02:04:30;101295.69;;;1.31;90.05
61786;BME280;47692;53.714;11.372;2023-04-28T02:06:56;101289.44;;;1.21;90.21
61786;BME280;47692;53.714;11.372;2023-04-28T02:09:21;101290.72;;;1.04;89.94
61786;BME280;47692;53.714;11.372;2023-04-28T02:11:46;101283.38;;;0.84;90.21
61786;BME280;47692;53.714;11.372;2023-04-28T02:14:12;101287.38;;;0.74;90.46
61786;BME280;47692;53.714;11.372;2023-04-28T02:16:37;101283.13;;;0.75;91.13
61786;BME280;47692;53.714;11.372;2023-04-28T02:19:02;101291.91;;;0.83;91.68
61786;BME280;47692;53.714;11.372;2023-04-28T02:21:28;101292.84;;;0.87;91.62
61786;BME280;47692;53.714;11.372;2023-04-28T02:23:53;101291.22;;;0.89;91.80
61786;BME280;47692;53.714;11.372;2023-04-28T02:26:18;101293.75;;;0.87;91.67
61786;BME280;47692;53.714;11.372;2023-04-28T02:28:44;101291.91;;;0.83;91.28
61786;BME280;47692;53.714;11.372;2023-04-28T02:31:10;101297.13;;;0.86;91.14
61786;BME280;47692;53.714;11.372;2023-04-28T02:33:36;101294.59;;;0.88;91.28
61786;BME280;47692;53.714;11.372;2023-04-28T02:36:03;101290.16;;;0.82;91.54
61786;BME280;47692;53.714;11.372;2023-04-28T02:38:28;101290.16;;;0.82;91.50
61786;BME280;47692;53.714;11.372;2023-04-28T02:41:04;101290.31;;;0.88;91.64
61786;BME280;47692;53.714;11.372;2023-04-28T02:43:30;101293.06;;;0.94;92.25
61786;BME280;47692;53.714;11.372;2023-04-28T02:45:56;101297.31;;;0.92;92.37
61786;BME280;47692;53.714;11.372;2023-04-28T02:48:24;101290.41;;;0.91;92.49
61786;BME280;47692;53.714;11.372;2023-04-28T02:50:50;101285.34;;;0.94;92.42
61786;BME280;47692;53.714;11.372;2023-04-28T02:53:17;101287.91;;;0.94;91.91
61786;BME280;47692;53.714;11.372;2023-04-28T02:55:43;101275.97;;;0.96;92.44
61786;BME280;47692;53.714;11.372;2023-04-28T02:58:09;101273.50;;;1.00;91.98
61786;BME280;47692;53.714;11.372;2023-04-28T03:00:34;101271.06;;;1.06;91.86
61786;BME280;47692;53.714;11.372;2023-04-28T03:03:00;101267.88;;;1.16;92.51
61786;BME280;47692;53.714;11.372;2023-04-28T03:05:26;101261.91;;;1.17;92.01
61786;BME280;47692;53.714;11.372;2023-04-28T03:07:51;101266.91;;;1.11;92.90
61786;BME280;47692;53.714;11.372;2023-04-28T03:10:17;101268.66;;;1.12;93.13
61786;BME280;47692;53.714;11.372;2023-04-28T03:12:42;101258.38;;;1.12;93.39
61786;BME280;47692;53.714;11.372;2023-04-28T03:15:07;101260.31;;;1.22;94.39
61786;BME280;47692;53.714;11.372;2023-04-28T03:17:34;101263.06;;;1.30;95.47
61786;BME280;47692;53.714;11.372;2023-04-28T03:20:01;101257.22;;;1.36;96.78
61786;BME280;47692;53.714;11.372;2023-04-28T03:22:27;101253.94;;;1.43;98.29
61786;BME280;47692;53.714;11.372;2023-04-28T03:24:52;101258.31;;;1.45;99.96
61786;BME280;47692;53.714;11.372;2023-04-28T03:27:18;101252.41;;;1.51;100.00
61786;BME280;47692;53.714;11.372;2023-04-28T03:29:43;101249.84;;;1.51;100.00
61786;BME280;47692;53.714;11.372;2023-04-28T03:32:08;101248.88;;;1.46;100.00
61786;BME280;47692;53.714;11.372;2023-04-28T03:34:33;101258.06;;;1.35;100.00
61786;BME280;47692;53.714;11.372;2023-04-28T03:36:59;101253.13;;;1.09;99.69
61786;BME280;47692;53.714;11.372;2023-04-28T03:39:24;101239.06;;;0.94;98.94
61786;BME280;47692;53.714;11.372;2023-04-28T03:41:49;101234.78;;;0.93;98.70
61786;BME280;47692;53.714;11.372;2023-04-28T03:44:15;101235.00;;;1.04;97.26
61786;BME280;47692;53.714;11.372;2023-04-28T03:46:40;101227.41;;;1.09;97.39
61786;BME280;47692;53.714;11.372;2023-04-28T03:49:05;101227.81;;;1.24;98.08
61786;BME280;47692;53.714;11.372;2023-04-28T03:51:31;101226.34;;;1.36;100.00
61786;BME280;47692;53.714;11.372;2023-04-28T03:53:57;101226.63;;;1.48;100.00
61786;BME280;47692;53.714;11.372;2023-04-28T03:56:23;101219.94;;;1.56;100.00
61786;BME280;47692;53.714;11.372;2023-04-28T03:58:48;101225.03;;;1.53;100.00
61786;BME280;47692;53.714;11.372;2023-04-28T04:01:14;101223.41;;;1.58;100.00
61786;BME280;47692;53.714;11.372;2023-04-28T04:03:39;101220.00;;;1.59;100.00
61786;BME280;47692;53.714;11.372;2023-04-28T04:06:05;101218.19;;;1.55;100.00
61786;BME280;47692;53.714;11.372;2023-04-28T04:08:31;101227.72;;;1.58;100.00
61786;BME280;47692;53.714;11.372;2023-04-28T04:10:57;101215.66;;;1.57;100.00
61786;BME280;47692;53.714;11.372;2023-04-28T04:13:22;101208.69;;;1.53;100.00
61786;BME280;47692;53.714;11.372;2023-04-28T04:15:48;101212.16;;;1.53;100.00
61786;BME280;47692;53.714;11.372;2023-04-28T04:18:14;101208.84;;;1.59;100.00
61786;BME280;47692;53.714;11.372;2023-04-28T04:20:40;101210.59;;;1.61;100.00
61786;BME280;47692;53.714;11.372;2023-04-28T04:23:05;101210.72;;;1.66;100.00
61786;BME280;47692;53.714;11.372;2023-04-28T04:25:30;101215.00;;;1.66;100.00
61786;BME280;47692;53.714;11.372;2023-04-28T04:27:57;101209.06;;;1.70;100.00
61786;BME280;47692;53.714;11.372;2023-04-28T04:30:22;101199.75;;;1.75;100.00
61786;BME280;47692;53.714;11.372;2023-04-28T04:32:47;101204.22;;;1.84;100.00
61786;BME280;47692;53.714;11.372;2023-04-28T04:35:13;101203.38;;;1.85;100.00
61786;BME280;47692;53.714;11.372;2023-04-28T04:37:38;101202.56;;;1.87;100.00
61786;BME280;47692;53.714;11.372;2023-04-28T04:40:05;101207.94;;;1.97;100.00
61786;BME280;47692;53.714;11.372;2023-04-28T04:42:30;101204.53;;;1.99;100.00
61786;BME280;47692;53.714;11.372;2023-04-28T04:44:55;101202.03;;;2.04;100.00
61786;BME280;47692;53.714;11.372;2023-04-28T04:47:21;101207.38;;;2.13;100.00
61786;BME280;47692;53.714;11.372;2023-04-28T04:49:47;101204.03;;;2.17;100.00
61786;BME280;47692;53.714;11.372;2023-04-28T04:52:13;101203.31;;;2.24;100.00
61786;BME280;47692;53.714;11.372;2023-04-28T04:54:38;101206.94;;;2.34;100.00
61786;BME280;47692;53.714;11.372;2023-04-28T04:57:04;101204.50;;;2.42;100.00
61786;BME280;47692;53.714;11.372;2023-04-28T04:59:29;101196.09;;;2.52;100.00
61786;BME280;47692;53.714;11.372;2023-04-28T05:01:54;101197.19;;;2.65;100.00
61786;BME280;47692;53.714;11.372;2023-04-28T05:04:20;101193.06;;;2.75;100.00
61786;BME280;47692;53.714;11.372;2023-04-28T05:06:46;101189.66;;;2.76;100.00
61786;BME280;47692;53.714;11.372;2023-04-28T05:09:11;101184.63;;;2.85;100.00
61786;BME280;47692;53.714;11.372;2023-04-28T05:11:36;101189.91;;;2.95;100.00
61786;BME280;47692;53.714;11.372;2023-04-28T05:14:02;101190.91;;;3.03;100.00
61786;BME280;47692;53.714;11.372;2023-04-28T05:16:27;101183.28;;;3.09;100.00
61786;BME280;47692;53.714;11.372;2023-04-28T05:18:52;101188.53;;;3.15;100.00
61786;BME280;47692;53.714;11.372;2023-04-28T05:21:18;101192.03;;;3.17;100.00
61786;BME280;47692;53.714;11.372;2023-04-28T05:23:43;101179.22;;;3.25;100.00
61786;BME280;47692;53.714;11.372;2023-04-28T05:26:09;101178.47;;;3.31;100.00
61786;BME280;47692;53.714;11.372;2023-04-28T05:28:34;101178.56;;;3.40;100.00
61786;BME280;47692;53.714;11.372;2023-04-28T05:31:00;101175.19;;;3.44;100.00
61786;BME280;47692;53.714;11.372;2023-04-28T05:33:25;101177.84;;;3.49;100.00
61786;BME280;47692;53.714;11.372;2023-04-28T05:35:50;101168.44;;;3.55;100.00
61786;BME280;47692;53.714;11.372;2023-04-28T05:38:16;101170.31;;;3.66;100.00
61786;BME280;47692;53.714;11.372;2023-04-28T05:40:41;101165.94;;;3.62;100.00
61786;BME280;47692;53.714;11.372;2023-04-28T05:43:07;101165.31;;;3.78;100.00
61786;BME280;47692;53.714;11.372;2023-04-28T05:45:32;101166.25;;;3.86;99.92
61786;BME280;47692;53.714;11.372;2023-04-28T05:47:57;101168.16;;;4.00;99.63
61786;BME280;47692;53.714;11.372;2023-04-28T05:50:22;101161.38;;;4.10;98.18
61786;BME280;47692;53.714;11.372;2023-04-28T05:52:48;101163.22;;;4.22;98.19
61786;BME280;47692;53.714;11.372;2023-04-28T05:55:13;101169.31;;;4.30;98.04
61786;BME280;47692;53.714;11.372;2023-04-28T05:57:38;101154.72;;;4.35;97.66
61786;BME280;47692;53.714;11.372;2023-04-28T06:00:04;101153.97;;;4.45;96.91
61786;BME280;47692;53.714;11.372;2023-04-28T06:02:30;101156.69;;;4.58;95.70
61786;BME280;47692;53.714;11.372;2023-04-28T06:04:55;101147.25;;;4.66;94.09
61786;BME280;47692;53.714;11.372;2023-04-28T06:07:20;101144.72;;;4.72;93.36
61786;BME280;47692;53.714;11.372;2023-04-28T06:09:46;101141.34;;;4.81;92.66
61786;BME280;47692;53.714;11.372;2023-04-28T06:12:11;101137.09;;;4.88;92.18
61786;BME280;47692;53.714;11.372;2023-04-28T06:14:37;101144.09;;;5.01;92.94
61786;BME280;47692;53.714;11.372;2023-04-28T06:17:03;101147.63;;;5.12;92.13
61786;BME280;47692;53.714;11.372;2023-04-28T06:19:28;101147.69;;;5.25;91.92
61786;BME280;47692;53.714;11.372;2023-04-28T06:21:53;101148.59;;;5.28;90.97
61786;BME280;47692;53.714;11.372;2023-04-28T06:24:19;101142.56;;;5.34;90.89
61786;BME280;47692;53.714;11.372;2023-04-28T06:26:45;101141.75;;;5.43;90.41
61786;BME280;47692;53.714;11.372;2023-04-28T06:29:10;101146.94;;;5.50;89.34
61786;BME280;47692;53.714;11.372;2023-04-28T06:31:35;101141.81;;;5.57;88.05
61786;BME280;47692;53.714;11.372;2023-04-28T06:34:01;101139.28;;;5.69;87.18
61786;BME280;47692;53.714;11.372;2023-04-28T06:36:26;101141.06;;;5.79;86.14
61786;BME280;47692;53.714;11.372;2023-04-28T06:38:52;101141.09;;;5.92;86.50
61786;BME280;47692;53.714;11.372;2023-04-28T06:41:17;101129.94;;;6.01;86.14
61786;BME280;47692;53.714;11.372;2023-04-28T06:43:43;101136.84;;;6.11;84.69
61786;BME280;47692;53.714;11.372;2023-04-28T06:46:08;101138.63;;;6.27;83.98
61786;BME280;47692;53.714;11.372;2023-04-28T06:48:35;101141.25;;;6.44;83.09
61786;BME280;47692;53.714;11.372;2023-04-28T06:51:00;101128.28;;;6.52;83.41
61786;BME280;47692;53.714;11.372;2023-04-28T06:53:25;101125.69;;;6.57;83.90
61786;BME280;47692;53.714;11.372;2023-04-28T06:55:51;101121.34;;;6.70;84.09
61786;BME280;47692;53.714;11.372;2023-04-28T06:58:16;101122.22;;;6.83;82.74
61786;BME280;47692;53.714;11.372;2023-04-28T07:00:41;101120.44;;;7.05;82.05
61786;BME280;47692;53.714;11.372;2023-04-28T07:03:07;101116.09;;;7.21;76.85
61786;BME280;47692;53.714;11.372;2023-04-28T07:05:32;101108.25;;;7.33;74.28
61786;BME280;47692;53.714;11.372;2023-04-28T07:07:58;101112.56;;;7.42;73.57
61786;BME280;47692;53.714;11.372;2023-04-28T07:10:23;101101.28;;;7.51;73.97
61786;BME280;47692;53.714;11.372;2023-04-28T07:12:49;101115.09;;;7.65;73.74
61786;BME280;47692;53.714;11.372;2023-04-28T07:15:16;101106.38;;;7.75;73.82
61786;BME280;47692;53.714;11.372;2023-04-28T07:17:42;101101.13;;;7.82;75.26
61786;BME280;47692;53.714;11.372;2023-04-28T07:20:07;101102.84;;;7.92;74.13
61786;BME280;47692;53.714;11.372;2023-04-28T07:22:33;101101.00;;;8.06;74.53
61786;BME280;47692;53.714;11.372;2023-04-28T07:24:58;101093.97;;;8.21;73.70
61786;BME280;47692;53.714;11.372;2023-04-28T07:27:24;101097.31;;;8.35;73.91
61786;BME280;47692;53.714;11.372;2023-04-28T07:29:49;101094.69;;;8.49;72.88
61786;BME280;47692;53.714;11.372;2023-04-28T07:32:15;101092.00;;;8.57;72.88
61786;BME280;47692;53.714;11.372;2023-04-28T07:34:40;101091.97;;;8.60;74.13
61786;BME280;47692;53.714;11.372;2023-04-28T07:37:05;101084.81;;;8.84;71.71
61786;BME280;47692;53.714;11.372;2023-04-28T07:39:32;101093.34;;;8.98;67.19
61786;BME280;47692;53.714;11.372;2023-04-28T07:41:59;101081.06;;;9.10;64.20
61786;BME280;47692;53.714;11.372;2023-04-28T07:44:25;101087.94;;;9.17;63.45
61786;BME280;47692;53.714;11.372;2023-04-28T07:46:50;101087.88;;;9.23;63.38
61786;BME280;47692;53.714;11.372;2023-04-28T07:49:17;101084.31;;;9.32;61.92
61786;BME280;47692;53.714;11.372;2023-04-28T07:51:42;101082.47;;;9.42;62.04
61786;BME280;47692;53.714;11.372;2023-04-28T07:54:07;101086.78;;;9.44;59.88
61786;BME280;47692;53.714;11.372;2023-04-28T07:56:33;101079.69;;;9.54;60.48
61786;BME280;47692;53.714;11.372;2023-04-28T07:58:58;101081.28;;;9.66;60.61
61786;BME280;47692;53.714;11.372;2023-04-28T08:01:24;101077.66;;;9.78;59.83
61786;BME280;47692;53.714;11.372;2023-04-28T08:03:49;101071.41;;;9.88;58.80
61786;BME280;47692;53.714;11.372;2023-04-28T08:06:15;101070.38;;;10.00;58.86
61786;BME280;47692;53.714;11.372;2023-04-28T08:08:40;101072.78;;;10.14;57.81
61786;BME280;47692;53.714;11.372;2023-04-28T08:11:06;101065.75;;;10.19;57.18
61786;BME280;47692;53.714;11.372;2023-04-28T08:13:32;101064.69;;;10.31;55.82
61786;BME280;47692;53.714;11.372;2023-04-28T08:15:58;101064.53;;;10.43;57.32
61786;BME280;47692;53.714;11.372;2023-04-28T08:18:26;101058.28;;;10.52;56.80
61786;BME280;47692;53.714;11.372;2023-04-28T08:20:51;101062.63;;;10.53;56.46
61786;BME280;47692;53.714;11.372;2023-04-28T08:23:17;101063.22;;;10.67;56.71
61786;BME280;47692;53.714;11.372;2023-04-28T08:25:42;101063.09;;;10.77;56.01
61786;BME280;47692;53.714;11.372;2023-04-28T08:28:08;101059.53;;;10.81;56.20
61786;BME280;47692;53.714;11.372;2023-04-28T08:30:33;101060.94;;;10.97;57.55
61786;BME280;47692;53.714;11.372;2023-04-28T08:32:59;101058.19;;;11.07;54.50
61786;BME280;47692;53.714;11.372;2023-04-28T08:35:24;101049.09;;;11.25;53.48
61786;BME280;47692;53.714;11.372;2023-04-28T08:37:51;101051.63;;;11.29;53.87
61786;BME280;47692;53.714;11.372;2023-04-28T08:40:17;101050.66;;;11.35;54.00
61786;BME280;47692;53.714;11.372;2023-04-28T08:42:43;101046.28;;;11.36;50.86
61786;BME280;47692;53.714;11.372;2023-04-28T08:45:12;101051.28;;;11.45;52.84
61786;BME280;47692;53.714;11.372;2023-04-28T08:47:39;101050.34;;;11.49;52.31
61786;BME280;47692;53.714;11.372;2023-04-28T08:50:10;101047.66;;;11.52;52.90
61786;BME280;47692;53.714;11.372;2023-04-28T08:52:40;101039.66;;;11.60;52.83
61786;BME280;47692;53.714;11.372;2023-04-28T08:55:08;101041.28;;;11.66;52.65
61786;BME280;47692;53.714;11.372;2023-04-28T08:57:37;101042.13;;;11.68;52.14
61786;BME280;47692;53.714;11.372;2023-04-28T09:00:04;101031.69;;;11.64;51.73
61786;BME280;47692;53.714;11.372;2023-04-28T09:02:30;101036.88;;;11.68;52.14
61786;BME280;47692;53.714;11.372;2023-04-28T09:04:55;101029.94;;;11.67;51.61
61786;BME280;47692;53.714;11.372;2023-04-28T09:07:21;101029.00;;;11.69;53.12
61786;BME280;47692;53.714;11.372;2023-04-28T09:09:47;101019.38;;;11.70;51.63
61786;BME280;47692;53.714;11.372;2023-04-28T09:12:12;101019.50;;;11.63;52.15
61786;BME280;47692;53.714;11.372;2023-04-28T09:14:38;101024.59;;;11.70;52.33
61786;BME280;47692;53.714;11.372;2023-04-28T09:17:11;101019.78;;;11.90;52.54
61786;BME280;47692;53.714;11.372;2023-04-28T09:19:38;101010.97;;;11.94;51.42
61786;BME280;47692;53.714;11.372;2023-04-28T09:22:04;101012.69;;;11.95;51.72
61786;BME280;47692;53.714;11.372;2023-04-28T09:24:35;101009.22;;;11.96;50.64
61786;BME280;47692;53.714;11.372;2023-04-28T09:27:04;101004.97;;;11.89;49.78
61786;BME280;47692;53.714;11.372;2023-04-28T09:29:30;100997.97;;;11.91;51.10
61786;BME280;47692;53.714;11.372;2023-04-28T09:34:50;101002.94;;;12.04;50.29
61786;BME280;47692;53.714;11.372;2023-04-28T09:37:17;100994.34;;;11.99;50.81
61786;BME280;47692;53.714;11.372;2023-04-28T09:39:45;100994.19;;;12.05;51.15
61786;BME280;47692;53.714;11.372;2023-04-28T09:42:30;100982.28;;;11.91;48.90
61786;BME280;47692;53.714;11.372;2023-04-28T09:44:57;100983.25;;;11.86;49.64
61786;BME280;47692;53.714;11.372;2023-04-28T09:47:23;100984.84;;;11.93;51.17
61786;BME280;47692;53.714;11.372;2023-04-28T09:49:53;100981.06;;;12.06;50.69
61786;BME280;47692;53.714;11.372;2023-04-28T09:52:20;100985.06;;;12.21;50.67
61786;BME280;47692;53.714;11.372;2023-04-28T09:54:51;100981.22;;;12.35;51.21
61786;BME280;47692;53.714;11.372;2023-04-28T09:57:17;100976.34;;;12.54;50.05
61786;BME280;47692;53.714;11.372;2023-04-28T09:59:48;100975.97;;;12.68;49.43
61786;BME280;47692;53.714;11.372;2023-04-28T10:02:18;100971.56;;;12.70;48.32
61786;BME280;47692;53.714;11.372;2023-04-28T10:04:45;100962.97;;;12.65;47.40
61786;BME280;47692;53.714;11.372;2023-04-28T10:07:11;100958.59;;;12.65;49.25
61786;BME280;47692;53.714;11.372;2023-04-28T10:09:38;100957.66;;;12.68;50.51
61786;BME280;47692;53.714;11.372;2023-04-28T10:12:07;100950.16;;;12.85;49.07
61786;BME280;47692;53.714;11.372;2023-04-28T10:14:35;100944.56;;;12.98;49.68
61786;BME280;47692;53.714;11.372;2023-04-28T10:17:01;100944.84;;;13.18;48.92
61786;BME280;47692;53.714;11.372;2023-04-28T10:19:27;100940.91;;;13.33;48.36
61786;BME280;47692;53.714;11.372;2023-04-28T10:25:02;100933.53;;;13.46;48.03
61786;BME280;47692;53.714;11.372;2023-04-28T10:27:33;100933.06;;;13.62;49.03
61786;BME280;47692;53.714;11.372;2023-04-28T10:30:15;100932.97;;;13.92;49.48
61786;BME280;47692;53.714;11.372;2023-04-28T10:32:41;100930.16;;;13.98;47.55
61786;BME280;47692;53.714;11.372;2023-04-28T10:38:16;100912.53;;;14.27;48.76
61786;BME280;47692;53.714;11.372;2023-04-28T10:40:43;100911.88;;;14.45;47.80
61786;BME280;47692;53.714;11.372;2023-04-28T10:43:11;100904.81;;;14.47;47.08
61786;BME280;47692;53.714;11.372;2023-04-28T10:48:18;100894.88;;;14.30;46.95
61786;BME280;47692;53.714;11.372;2023-04-28T10:56:14;100895.38;;;14.16;47.71
61786;BME280;47692;53.714;11.372;2023-04-28T10:58:41;100894.06;;;14.30;48.22
61786;BME280;47692;53.714;11.372;2023-04-28T11:06:33;100894.22;;;14.74;46.40
61786;BME280;47692;53.714;11.372;2023-04-28T11:09:02;100891.59;;;14.74;47.00
61786;BME280;47692;53.714;11.372;2023-04-28T11:11:31;100880.22;;;14.74;46.60
61786;BME280;47692;53.714;11.372;2023-04-28T11:19:19;100879.25;;;14.76;48.14
61786;BME280;47692;53.714;11.372;2023-04-28T11:21:46;100868.38;;;14.85;46.25
61786;BME280;47692;53.714;11.372;2023-04-28T11:24:12;100874.88;;;14.99;47.19
61786;BME280;47692;53.714;11.372;2023-04-28T11:26:38;100866.44;;;14.91;46.30
61786;BME280;47692;53.714;11.372;2023-04-28T11:29:04;100872.22;;;14.77;47.02
61786;BME280;47692;53.714;11.372;2023-04-28T11:31:30;100881.75;;;14.79;48.40
61786;BME280;47692;53.714;11.372;2023-04-28T11:36:30;100862.66;;;14.74;46.17
61786;BME280;47692;53.714;11.372;2023-04-28T11:39:00;100857.13;;;14.82;47.84
61786;BME280;47692;53.714;11.372;2023-04-28T11:41:26;100853.78;;;14.78;46.96
61786;BME280;47692;53.714;11.372;2023-04-28T11:43:52;100848.56;;;14.77;47.69
61786;BME280;47692;53.714;11.372;2023-04-28T11:46:23;100850.78;;;14.88;47.79
61786;BME280;47692;53.714;11.372;2023-04-28T11:48:59;100843.41;;;14.97;46.51
61786;BME280;47692;53.714;11.372;2023-04-28T11:51:32;100846.34;;;14.90;46.92
61786;BME280;47692;53.714;11.372;2023-04-28T11:53:58;100847.34;;;14.85;47.26
61786;BME280;47692;53.714;11.372;2023-04-28T11:56:24;100849.53;;;14.74;46.83
61786;BME280;47692;53.714;11.372;2023-04-28T11:59:10;100836.97;;;14.82;47.49
61786;BME280;47692;53.714;11.372;2023-04-28T12:04:12;100837.50;;;14.68;47.29
61786;BME280;47692;53.714;11.372;2023-04-28T12:06:39;100837.44;;;14.70;47.38
61786;BME280;47692;53.714;11.372;2023-04-28T12:09:15;100841.16;;;14.63;46.36
61786;BME280;47692;53.714;11.372;2023-04-28T12:11:54;100832.84;;;14.51;46.75
61786;BME280;47692;53.714;11.372;2023-04-28T12:14:21;100837.72;;;14.61;47.40
61786;BME280;47692;53.714;11.372;2023-04-28T12:16:47;100835.84;;;14.66;47.15
61786;BME280;47692;53.714;11.372;2023-04-28T12:19:13;100827.66;;;14.74;47.62
61786;BME280;47692;53.714;11.372;2023-04-28T12:21:39;100837.72;;;15.08;48.53
61786;BME280;47692;53.714;11.372;2023-04-28T12:24:15;100839.63;;;15.47;46.94
61786;BME280;47692;53.714;11.372;2023-04-28T12:26:41;100828.75;;;15.57;46.13
61786;BME280;47692;53.714;11.372;2023-04-28T12:29:06;100825.97;;;15.60;45.60
61786;BME280;47692;53.714;11.372;2023-04-28T12:31:47;100824.41;;;15.76;45.65
61786;BME280;47692;53.714;11.372;2023-04-28T12:34:12;100827.75;;;15.80;44.22
61786;BME280;47692;53.714;11.372;2023-04-28T12:36:38;100813.22;;;15.71;45.58
61786;BME280;47692;53.714;11.372;2023-04-28T12:39:03;100817.19;;;15.81;45.50
61786;BME280;47692;53.714;11.372;2023-04-28T12:41:29;100817.44;;;15.75;44.27
61786;BME280;47692;53.714;11.372;2023-04-28T12:43:54;100809.94;;;15.66;45.62
61786;BME280;47692;53.714;11.372;2023-04-28T12:46:19;100802.19;;;15.63;45.12
61786;BME280;47692;53.714;11.372;2023-04-28T12:48:45;100800.47;;;15.62;45.11
61786;BME280;47692;53.714;11.372;2023-04-28T12:51:10;100804.53;;;15.69;45.48
61786;BME280;47692;53.714;11.372;2023-04-28T12:53:35;100803.22;;;15.79;46.15
61786;BME280;47692;53.714;11.372;2023-04-28T12:56:01;100790.97;;;15.78;45.50
61786;BME280;47692;53.714;11.372;2023-04-28T12:58:27;100791.75;;;15.60;45.57
61786;BME280;47692;53.714;11.372;2023-04-28T13:00:52;100787.56;;;15.56;47.23
61786;BME280;47692;53.714;11.372;2023-04-28T13:03:18;100788.28;;;15.59;47.59
61786;BME280;47692;53.714;11.372;2023-04-28T13:05:45;100783.09;;;15.58;46.06
61786;BME280;47692;53.714;11.372;2023-04-28T13:08:10;100779.53;;;15.59;46.18
61786;BME280;47692;53.714;11.372;2023-04-28T13:10:36;100773.81;;;15.70;46.63
61786;BME280;47692;53.714;11.372;2023-04-28T13:13:03;100776.84;;;16.02;47.04